createdAt,value
2022-09-15T00:00:32.876Z,64.70
2022-09-15T00:04:14.816Z,64.80
2022-09-15T00:07:56.738Z,64.80
2022-09-15T00:11:39.168Z,64.90
2022-09-15T00:15:21.905Z,64.90
2022-09-15T00:19:06.694Z,64.90
2022-09-15T00:22:49.397Z,64.90
2022-09-15T00:26:32.351Z,64.90
2022-09-15T00:30:14.198Z,64.90
2022-09-15T00:33:58.965Z,64.90
2022-09-15T00:37:40.867Z,64.90
2022-09-15T00:41:24.507Z,64.80
2022-09-15T00:45:06.945Z,64.80
2022-09-15T00:48:59.995Z,64.80
2022-09-15T00:52:57.787Z,64.90
2022-09-15T00:56:42.838Z,65.10
2022-09-15T01:00:27.704Z,64.70
2022-09-15T01:04:09.891Z,64.70
2022-09-15T01:08:09.951Z,64.70
2022-09-15T01:11:51.877Z,65.00
2022-09-15T01:16:01.786Z,64.70
2022-09-15T01:20:20.978Z,65.10
2022-09-15T01:24:30.599Z,65.00
2022-09-15T01:28:54.955Z,64.90
2022-09-15T01:33:04.273Z,65.20
2022-09-15T01:36:57.057Z,65.10
2022-09-15T01:40:54.865Z,64.90
2022-09-15T01:44:44.816Z,65.10
2022-09-15T01:48:28.512Z,64.90
2022-09-15T01:52:10.455Z,64.80
2022-09-15T01:56:07.464Z,64.90
2022-09-15T01:59:55.257Z,65.30
2022-09-15T02:03:44.744Z,65.20
2022-09-15T02:07:45.033Z,65.30
2022-09-15T02:11:28.261Z,65.40
2022-09-15T02:15:15.136Z,65.00
2022-09-15T02:19:27.259Z,65.30
2022-09-15T02:23:18.972Z,65.80
2022-09-15T02:27:04.065Z,65.80
2022-09-15T02:30:48.077Z,65.60
2022-09-15T02:34:35.762Z,65.70
2022-09-15T02:38:17.908Z,65.80
2022-09-15T02:42:02.449Z,65.80
2022-09-15T02:45:44.520Z,65.90
2022-09-15T02:49:26.634Z,65.90
2022-09-15T02:53:09.148Z,66.00
2022-09-15T02:56:51.015Z,66.20
2022-09-15T03:00:33.077Z,66.30
2022-09-15T03:04:15.129Z,66.50
2022-09-15T03:07:57.709Z,66.60
2022-09-15T03:11:39.773Z,66.70
2022-09-15T03:15:24.423Z,66.80
2022-09-15T03:19:06.548Z,66.90
2022-09-15T03:22:49.808Z,67.00
2022-09-15T03:26:31.738Z,67.10
2022-09-15T03:30:14.528Z,67.20
2022-09-15T03:33:56.329Z,67.30
2022-09-15T03:37:38.435Z,67.40
2022-09-15T03:41:20.306Z,67.50
2022-09-15T03:45:02.168Z,67.60
2022-09-15T03:48:44.570Z,67.70
2022-09-15T03:52:26.549Z,67.70
2022-09-15T03:56:11.243Z,67.70
2022-09-15T03:59:53.181Z,67.80
2022-09-15T04:03:39.079Z,67.90
2022-09-15T04:07:26.056Z,68.00
2022-09-15T04:11:10.051Z,68.20
2022-09-15T04:14:51.944Z,68.30
2022-09-15T04:18:34.304Z,68.30
2022-09-15T04:22:17.936Z,68.30
2022-09-15T04:26:08.919Z,68.30
2022-09-15T04:29:52.348Z,69.20
2022-09-15T04:33:34.632Z,68.40
2022-09-15T04:37:16.536Z,68.50
2022-09-15T04:40:59.019Z,68.50
2022-09-15T04:44:40.984Z,68.60
2022-09-15T04:48:23.572Z,68.70
2022-09-15T04:52:09.506Z,68.80
2022-09-15T04:55:51.886Z,68.90
2022-09-15T04:59:34.338Z,68.90
2022-09-15T05:03:16.217Z,69.00
2022-09-15T05:06:58.083Z,69.10
2022-09-15T05:10:39.988Z,69.20
2022-09-15T05:14:21.769Z,69.20
2022-09-15T05:18:03.856Z,69.20
2022-09-15T05:21:45.921Z,69.20
2022-09-15T05:25:28.435Z,69.20
2022-09-15T05:29:10.317Z,69.20
2022-09-15T05:32:53.535Z,69.10
2022-09-15T05:36:35.361Z,69.10
2022-09-15T05:40:17.385Z,69.10
2022-09-15T05:43:59.353Z,69.10
2022-09-15T05:47:41.183Z,69.10
2022-09-15T05:51:23.815Z,69.10
2022-09-15T05:55:05.915Z,69.20
2022-09-15T05:58:48.924Z,69.20
2022-09-15T06:02:31.256Z,69.20
2022-09-15T06:06:13.968Z,69.20
2022-09-15T06:09:55.823Z,69.20
2022-09-15T06:13:38.549Z,69.20
2022-09-15T06:17:22.350Z,69.20
2022-09-15T06:21:06.672Z,69.10
2022-09-15T06:24:48.576Z,69.10
2022-09-15T06:28:30.430Z,69.00
2022-09-15T06:32:12.389Z,69.00
2022-09-15T06:35:54.609Z,68.80
2022-09-15T06:39:36.495Z,68.60
2022-09-15T06:43:18.583Z,68.50
2022-09-15T06:47:00.481Z,68.40
2022-09-15T06:50:42.371Z,68.20
2022-09-15T06:54:24.321Z,68.00
2022-09-15T06:58:06.386Z,67.90
2022-09-15T07:01:52.304Z,67.70
2022-09-15T07:05:34.445Z,67.50
2022-09-15T07:09:16.721Z,67.30
2022-09-15T07:13:01.419Z,67.00
2022-09-15T07:16:43.384Z,66.80
2022-09-15T07:20:26.007Z,66.70
2022-09-15T07:24:08.016Z,66.50
2022-09-15T07:27:49.965Z,66.40
2022-09-15T07:31:34.563Z,66.20
2022-09-15T07:35:25.158Z,65.90
2022-09-15T07:39:07.657Z,65.20
2022-09-15T07:42:55.260Z,65.50
2022-09-15T07:46:49.450Z,65.30
2022-09-15T07:50:48.809Z,64.80
2022-09-15T07:54:37.421Z,64.10
2022-09-15T07:58:20.095Z,64.40
2022-09-15T08:02:02.211Z,64.40
2022-09-15T08:06:14.712Z,64.20
2022-09-15T08:14:03.467Z,63.50
2022-09-15T08:18:24.473Z,62.60
2022-09-15T08:22:08.161Z,61.40
2022-09-15T08:25:55.211Z,61.70
2022-09-15T08:29:40.647Z,60.30
2022-09-15T08:33:22.567Z,60.80
2022-09-15T08:37:04.596Z,60.20
2022-09-15T08:40:47.763Z,59.90
2022-09-15T08:44:49.727Z,59.60
2022-09-15T08:48:51.293Z,58.30
2022-09-15T08:52:43.489Z,58.10
2022-09-15T08:56:31.072Z,58.80
2022-09-15T09:00:17.674Z,58.80
2022-09-15T09:04:29.189Z,58.00
2022-09-15T09:08:31.793Z,57.20
2022-09-15T09:12:45.990Z,55.10
2022-09-15T09:16:45.944Z,54.40
2022-09-15T09:20:38.170Z,53.10
2022-09-15T09:24:50.462Z,52.90
2022-09-15T09:28:46.517Z,50.20
2022-09-15T09:32:54.342Z,49.20
2022-09-15T09:36:36.678Z,48.70
2022-09-15T09:40:20.044Z,50.30
2022-09-15T09:44:07.469Z,51.10
2022-09-15T09:47:49.643Z,49.60
2022-09-15T09:52:00.392Z,49.50
2022-09-15T09:55:42.391Z,48.10
2022-09-15T10:12:01.562Z,46.90
2022-09-15T10:15:43.861Z,43.60
2022-09-15T10:19:27.966Z,45.00
2022-09-15T10:23:26.908Z,45.40
2022-09-15T10:27:36.999Z,44.00
2022-09-15T10:31:31.929Z,45.20
2022-09-15T10:35:19.260Z,44.50
2022-09-15T10:39:24.834Z,45.60
2022-09-15T10:43:42.332Z,44.60
2022-09-15T10:48:09.079Z,44.90
2022-09-15T10:52:39.102Z,44.70
2022-09-15T10:56:46.347Z,43.20
2022-09-15T11:00:52.979Z,41.00
2022-09-15T11:04:53.856Z,40.40
2022-09-15T11:09:01.631Z,39.80
2022-09-15T11:13:14.829Z,40.20
2022-09-15T11:22:25.438Z,40.90
2022-09-15T11:26:32.716Z,41.40
2022-09-15T11:30:25.232Z,41.30
2022-09-15T11:34:56.311Z,41.50
2022-09-15T11:39:03.039Z,41.30
2022-09-15T11:43:22.275Z,41.30
2022-09-15T11:47:33.011Z,41.30
2022-09-15T11:51:19.721Z,41.80
2022-09-15T11:55:08.808Z,41.90
2022-09-15T11:58:59.413Z,41.70
2022-09-15T12:02:44.771Z,42.30
2022-09-15T12:06:43.312Z,42.70
2022-09-15T12:10:38.010Z,41.20
2022-09-15T12:14:41.677Z,41.40
2022-09-15T12:19:00.455Z,41.30
2022-09-15T12:23:29.879Z,41.30
2022-09-15T12:27:37.178Z,38.50
2022-09-15T12:31:40.760Z,38.30
2022-09-15T12:35:23.251Z,38.30
2022-09-15T12:39:27.428Z,39.40
2022-09-15T12:43:14.087Z,36.90
2022-09-15T12:46:58.090Z,38.60
2022-09-15T12:50:44.208Z,39.00
2022-09-15T12:54:34.292Z,38.40
2022-09-15T12:58:23.651Z,35.40
2022-09-15T13:07:15.289Z,34.80
2022-09-15T13:11:20.128Z,34.70
2022-09-15T13:15:07.238Z,34.50
2022-09-15T13:18:54.325Z,33.60
2022-09-15T13:22:41.244Z,34.10
2022-09-15T13:26:31.722Z,34.60
2022-09-15T13:30:58.577Z,34.00
2022-09-15T13:35:18.358Z,33.70
2022-09-15T13:39:39.737Z,32.90
2022-09-15T13:43:42.224Z,31.20
2022-09-15T13:47:52.724Z,30.40
2022-09-15T13:51:44.425Z,29.90
2022-09-15T13:55:29.645Z,28.60
2022-09-15T13:59:27.539Z,30.20
2022-09-15T14:03:15.286Z,29.50
2022-09-15T14:07:04.785Z,31.20
2022-09-15T14:10:59.241Z,31.50
2022-09-15T14:14:55.239Z,32.70
2022-09-15T14:18:51.253Z,33.00
2022-09-15T14:22:38.637Z,33.80
2022-09-15T14:26:30.280Z,34.90
2022-09-15T14:30:32.290Z,35.20
2022-09-15T14:34:35.382Z,35.00
2022-09-15T14:38:28.545Z,35.90
2022-09-15T14:42:32.706Z,36.10
2022-09-15T14:46:19.576Z,36.60
2022-09-15T14:50:20.765Z,37.20
2022-09-15T14:54:06.724Z,36.80
2022-09-15T15:03:00.539Z,37.10
2022-09-15T15:06:50.690Z,37.40
2022-09-15T15:14:31.345Z,38.10
2022-09-15T15:18:39.690Z,38.40
2022-09-15T15:22:30.313Z,38.30
2022-09-15T15:26:39.412Z,38.60
2022-09-15T15:30:39.694Z,38.80
2022-09-15T15:34:25.497Z,38.90
2022-09-15T15:38:11.643Z,39.30
2022-09-15T15:42:05.510Z,39.50
2022-09-15T15:46:01.935Z,39.50
2022-09-15T15:50:13.783Z,39.90
2022-09-15T15:53:56.905Z,40.20
2022-09-15T15:57:39.515Z,40.30
2022-09-15T16:01:23.678Z,40.30
2022-09-15T16:05:06.049Z,40.40
2022-09-15T16:13:20.727Z,40.30
2022-09-15T16:17:02.813Z,40.50
2022-09-15T16:20:49.245Z,40.70
2022-09-15T16:24:32.332Z,40.80
2022-09-15T16:32:26.977Z,40.80
2022-09-15T16:36:38.310Z,40.20
2022-09-15T16:40:20.340Z,40.30
2022-09-15T16:44:03.073Z,40.70
2022-09-15T16:47:44.949Z,40.90
2022-09-15T16:51:32.469Z,41.10
2022-09-15T16:55:37.061Z,41.10
2022-09-15T16:59:18.923Z,41.20
2022-09-15T17:03:00.875Z,41.40
2022-09-15T17:06:43.318Z,41.70
2022-09-15T17:10:25.278Z,41.80
2022-09-15T17:14:11.564Z,42.00
2022-09-15T17:17:57.421Z,42.00
2022-09-15T17:21:39.275Z,42.10
2022-09-15T17:25:21.592Z,42.20
2022-09-15T17:29:03.477Z,42.30
2022-09-15T17:32:48.065Z,42.30
2022-09-15T17:36:36.232Z,42.40
2022-09-15T17:40:20.420Z,42.60
2022-09-15T17:44:05.675Z,42.70
2022-09-15T17:47:49.143Z,42.80
2022-09-15T17:51:31.240Z,43.00
2022-09-15T17:55:19.369Z,43.20
2022-09-15T17:59:02.368Z,43.40
2022-09-15T18:02:48.964Z,43.50
2022-09-15T18:06:30.839Z,43.70
2022-09-15T18:10:13.478Z,43.80
2022-09-15T18:13:58.293Z,43.90
2022-09-15T18:17:42.955Z,44.20
2022-09-15T18:21:29.059Z,44.30
2022-09-15T18:25:28.280Z,44.50
2022-09-15T18:29:12.386Z,44.80
2022-09-15T18:32:58.107Z,44.60
2022-09-15T18:36:41.240Z,44.70
2022-09-15T18:40:24.167Z,44.80
2022-09-15T18:44:11.273Z,44.80
2022-09-15T18:47:55.556Z,44.90
2022-09-15T18:51:51.310Z,44.90
2022-09-15T18:55:33.710Z,45.00
2022-09-15T18:59:17.796Z,44.80
2022-09-15T19:03:02.209Z,45.00
2022-09-15T19:06:44.369Z,45.10
2022-09-15T19:10:30.547Z,45.10
2022-09-15T19:14:13.045Z,45.20
2022-09-15T19:17:55.110Z,45.30
2022-09-15T19:21:43.806Z,45.40
2022-09-15T19:25:25.952Z,45.60
2022-09-15T19:29:17.903Z,45.70
2022-09-15T19:33:00.245Z,45.90
2022-09-15T19:36:47.402Z,45.80
2022-09-15T19:40:29.365Z,45.90
2022-09-15T19:44:11.409Z,45.80
2022-09-15T19:47:53.356Z,45.90
2022-09-15T19:51:36.345Z,45.90
2022-09-15T19:55:19.033Z,45.90
2022-09-15T19:59:01.722Z,45.90
2022-09-15T20:02:48.027Z,46.00
2022-09-15T20:06:32.748Z,46.00
2022-09-15T20:10:15.586Z,46.00
2022-09-15T20:13:59.196Z,46.00
2022-09-15T20:17:42.506Z,46.10
2022-09-15T20:21:51.093Z,46.20
2022-09-15T20:25:33.758Z,46.40
2022-09-15T20:29:16.444Z,46.50
2022-09-15T20:32:59.235Z,46.60
2022-09-15T20:36:41.290Z,46.80
2022-09-15T20:40:24.614Z,47.00
2022-09-15T20:44:09.712Z,47.20
2022-09-15T20:47:51.673Z,47.30
2022-09-15T20:51:35.403Z,47.50
2022-09-15T20:55:19.692Z,47.80
2022-09-15T20:59:02.393Z,48.00
2022-09-15T21:02:44.316Z,48.10
2022-09-15T21:06:29.465Z,48.50
2022-09-15T21:10:19.054Z,48.70
2022-09-15T21:14:01.930Z,48.60
2022-09-15T21:17:45.669Z,48.60
2022-09-15T21:21:37.484Z,48.60
2022-09-15T21:25:21.150Z,49.00
2022-09-15T21:29:07.741Z,48.70
2022-09-15T21:32:49.615Z,49.00
2022-09-15T21:36:45.479Z,48.90
2022-09-15T21:40:28.192Z,49.10
2022-09-15T21:44:11.277Z,49.10
2022-09-15T21:47:53.109Z,49.50
2022-09-15T21:51:35.219Z,49.60
2022-09-15T21:55:17.067Z,49.80
2022-09-15T21:58:59.365Z,49.90
2022-09-15T22:02:41.250Z,50.20
2022-09-15T22:06:32.183Z,50.50
2022-09-15T22:10:14.196Z,50.60
2022-09-15T22:13:56.450Z,50.70
2022-09-15T22:17:38.354Z,50.80
2022-09-15T22:21:23.170Z,51.00
2022-09-15T22:25:05.896Z,51.30
2022-09-15T22:28:48.358Z,51.50
2022-09-15T22:32:30.498Z,51.80
2022-09-15T22:36:25.136Z,52.00
2022-09-15T22:40:10.628Z,53.20
2022-09-15T22:43:52.603Z,52.40
2022-09-15T22:47:34.524Z,52.70
2022-09-15T22:51:16.610Z,52.90
2022-09-15T22:54:58.839Z,53.20
2022-09-15T22:58:44.097Z,53.40
2022-09-15T23:02:26.761Z,53.60
2022-09-15T23:06:08.705Z,53.70
2022-09-15T23:09:50.732Z,53.80
2022-09-15T23:13:32.675Z,54.00
2022-09-15T23:17:14.556Z,54.10
2022-09-15T23:21:01.874Z,54.30
2022-09-15T23:24:43.901Z,54.90
2022-09-15T23:28:25.924Z,54.50
2022-09-15T23:32:08.163Z,54.70
2022-09-15T23:35:51.074Z,54.80
2022-09-15T23:39:33.093Z,55.00
2022-09-15T23:43:15.636Z,55.10
2022-09-15T23:46:57.627Z,55.20
2022-09-15T23:50:40.866Z,55.40
2022-09-15T23:54:22.807Z,55.50
2022-09-15T23:58:05.584Z,55.60
